sensor_id;sensor_type;location;lat;lon;timestamp;pressure;altitude;pressure_sealevel;temperature;humidity
68141;BME280;54941;52.220;104.306;2024-03-06T00:02:07;97246.09;;;-15.42;75.67
68141;BME280;54941;52.220;104.306;2024-03-06T00:04:33;97247.19;;;-15.29;75.18
68141;BME280;54941;52.220;104.306;2024-03-06T00:07:00;97262.75;;;-15.35;74.81
68141;BME280;54941;52.220;104.306;2024-03-06T00:09:27;97258.69;;;-15.52;74.72
68141;BME280;54941;52.220;104.306;2024-03-06T00:11:55;97267.19;;;-15.33;75.09
68141;BME280;54941;52.220;104.306;2024-03-06T00:14:24;97260.00;;;-15.09;74.51
68141;BME280;54941;52.220;104.306;2024-03-06T00:16:51;97253.72;;;-15.04;74.66
68141;BME280;54941;52.220;104.306;2024-03-06T00:19:17;97259.13;;;-14.91;74.45
68141;BME280;54941;52.220;104.306;2024-03-06T00:21:44;97257.38;;;-14.63;74.75
68141;BME280;54941;52.220;104.306;2024-03-06T00:24:11;97253.50;;;-14.39;73.17
68141;BME280;54941;52.220;104.306;2024-03-06T00:26:39;97262.88;;;-14.48;71.97
68141;BME280;54941;52.220;104.306;2024-03-06T00:29:08;97257.66;;;-14.50;72.50
68141;BME280;54941;52.220;104.306;2024-03-06T00:31:34;97269.16;;;-14.63;72.73
68141;BME280;54941;52.220;104.306;2024-03-06T00:34:01;97258.69;;;-14.37;73.17
68141;BME280;54941;52.220;104.306;2024-03-06T00:36:27;97265.22;;;-14.31;73.55
68141;BME280;54941;52.220;104.306;2024-03-06T00:38:53;97262.03;;;-14.28;72.70
68141;BME280;54941;52.220;104.306;2024-03-06T00:41:20;97269.91;;;-14.25;72.93
68141;BME280;54941;52.220;104.306;2024-03-06T00:43:46;97269.47;;;-14.11;73.22
68141;BME280;54941;52.220;104.306;2024-03-06T00:46:14;97271.16;;;-13.91;72.95
68141;BME280;54941;52.220;104.306;2024-03-06T00:48:40;97277.56;;;-13.76;73.34
68141;BME280;54941;52.220;104.306;2024-03-06T00:51:06;97274.41;;;-13.53;72.49
68141;BME280;54941;52.220;104.306;2024-03-06T00:53:33;97268.94;;;-13.47;72.44
68141;BME280;54941;52.220;104.306;2024-03-06T00:56:00;97259.44;;;-13.30;72.21
68141;BME280;54941;52.220;104.306;2024-03-06T00:58:26;97262.41;;;-13.13;71.62
68141;BME280;54941;52.220;104.306;2024-03-06T01:00:52;97274.00;;;-13.07;71.24
68141;BME280;54941;52.220;104.306;2024-03-06T01:03:20;97278.84;;;-13.20;70.54
68141;BME280;54941;52.220;104.306;2024-03-06T01:05:46;97282.50;;;-13.06;69.19
68141;BME280;54941;52.220;104.306;2024-03-06T01:08:13;97277.25;;;-12.87;67.87
68141;BME280;54941;52.220;104.306;2024-03-06T01:10:39;97271.94;;;-13.01;68.53
68141;BME280;54941;52.220;104.306;2024-03-06T01:13:05;97276.47;;;-12.76;68.85
68141;BME280;54941;52.220;104.306;2024-03-06T01:15:32;97280.19;;;-12.41;67.50
68141;BME280;54941;52.220;104.306;2024-03-06T01:17:58;97280.63;;;-11.92;65.60
68141;BME280;54941;52.220;104.306;2024-03-06T01:20:26;97275.56;;;-11.59;63.22
68141;BME280;54941;52.220;104.306;2024-03-06T01:22:55;97281.38;;;-11.71;62.46
68141;BME280;54941;52.220;104.306;2024-03-06T01:25:21;97278.66;;;-11.63;62.72
68141;BME280;54941;52.220;104.306;2024-03-06T01:27:48;97264.66;;;-11.01;60.48
68141;BME280;54941;52.220;104.306;2024-03-06T01:30:14;97275.28;;;-10.73;58.96
68141;BME280;54941;52.220;104.306;2024-03-06T01:32:41;97266.28;;;-10.33;58.19
68141;BME280;54941;52.220;104.306;2024-03-06T01:35:07;97264.91;;;-9.67;55.89
68141;BME280;54941;52.220;104.306;2024-03-06T01:37:35;97262.09;;;-9.47;54.88
68141;BME280;54941;52.220;104.306;2024-03-06T01:40:01;97273.50;;;-9.17;54.06
68141;BME280;54941;52.220;104.306;2024-03-06T01:42:28;97266.88;;;-8.37;52.28
68141;BME280;54941;52.220;104.306;2024-03-06T01:44:54;97256.34;;;-6.90;49.48
68141;BME280;54941;52.220;104.306;2024-03-06T01:47:20;97249.19;;;-6.52;48.55
68141;BME280;54941;52.220;104.306;2024-03-06T01:49:47;97257.25;;;-7.46;50.69
68141;BME280;54941;52.220;104.306;2024-03-06T01:52:14;97255.63;;;-7.30;50.57
68141;BME280;54941;52.220;104.306;2024-03-06T01:54:44;97252.56;;;-6.53;49.52
68141;BME280;54941;52.220;104.306;2024-03-06T01:57:11;97253.53;;;-6.65;48.67
68141;BME280;54941;52.220;104.306;2024-03-06T01:59:39;97252.75;;;-6.04;46.67
68141;BME280;54941;52.220;104.306;2024-03-06T02:02:07;97250.81;;;-6.08;46.90
68141;BME280;54941;52.220;104.306;2024-03-06T02:04:33;97245.63;;;-6.24;47.72
68141;BME280;54941;52.220;104.306;2024-03-06T02:06:59;97242.84;;;-5.98;46.13
68141;BME280;54941;52.220;104.306;2024-03-06T02:09:26;97246.09;;;-6.46;46.52
68141;BME280;54941;52.220;104.306;2024-03-06T02:11:54;97246.78;;;-6.49;46.27
68141;BME280;54941;52.220;104.306;2024-03-06T02:14:20;97236.53;;;-6.03;45.31
68141;BME280;54941;52.220;104.306;2024-03-06T02:16:47;97242.00;;;-5.33;43.06
68141;BME280;54941;52.220;104.306;2024-03-06T02:19:39;97247.16;;;-5.66;43.49
68141;BME280;54941;52.220;104.306;2024-03-06T02:22:08;97244.84;;;-5.92;42.93
68141;BME280;54941;52.220;104.306;2024-03-06T02:24:35;97248.38;;;-4.78;42.48
68141;BME280;54941;52.220;104.306;2024-03-06T02:27:01;97244.75;;;-4.81;41.87
68141;BME280;54941;52.220;104.306;2024-03-06T02:29:28;97239.06;;;-5.08;42.65
68141;BME280;54941;52.220;104.306;2024-03-06T02:31:54;97250.56;;;-5.18;43.15
68141;BME280;54941;52.220;104.306;2024-03-06T02:34:20;97250.72;;;-4.99;43.07
68141;BME280;54941;52.220;104.306;2024-03-06T02:36:47;97239.38;;;-5.35;43.78
68141;BME280;54941;52.220;104.306;2024-03-06T02:39:14;97230.19;;;-4.29;40.34
68141;BME280;54941;52.220;104.306;2024-03-06T02:41:41;97241.84;;;-4.37;40.50
68141;BME280;54941;52.220;104.306;2024-03-06T02:44:07;97238.22;;;-4.91;41.96
68141;BME280;54941;52.220;104.306;2024-03-06T02:46:33;97234.38;;;-4.49;41.73
68141;BME280;54941;52.220;104.306;2024-03-06T02:48:59;97238.00;;;-4.95;43.39
68141;BME280;54941;52.220;104.306;2024-03-06T02:51:26;97223.47;;;-3.72;40.76
68141;BME280;54941;52.220;104.306;2024-03-06T02:53:52;97220.97;;;-4.06;42.26
68141;BME280;54941;52.220;104.306;2024-03-06T02:56:20;97209.78;;;-1.25;37.97
68141;BME280;54941;52.220;104.306;2024-03-06T02:58:46;97215.28;;;-2.26;39.12
68141;BME280;54941;52.220;104.306;2024-03-06T03:01:14;97220.78;;;-3.18;41.31
68141;BME280;54941;52.220;104.306;2024-03-06T03:03:40;97219.16;;;-3.91;42.69
68141;BME280;54941;52.220;104.306;2024-03-06T03:06:07;97212.69;;;-3.07;41.86
68141;BME280;54941;52.220;104.306;2024-03-06T03:08:33;97207.75;;;-2.81;40.50
68141;BME280;54941;52.220;104.306;2024-03-06T03:11:00;97212.91;;;-3.21;41.44
68141;BME280;54941;52.220;104.306;2024-03-06T03:13:27;97220.69;;;-4.30;43.87
68141;BME280;54941;52.220;104.306;2024-03-06T03:15:54;97211.66;;;-2.51;40.55
68141;BME280;54941;52.220;104.306;2024-03-06T03:18:20;97209.75;;;-3.14;41.88
68141;BME280;54941;52.220;104.306;2024-03-06T03:20:46;97201.00;;;-2.38;40.40
68141;BME280;54941;52.220;104.306;2024-03-06T03:23:12;97193.75;;;-2.46;38.87
68141;BME280;54941;52.220;104.306;2024-03-06T03:25:40;97191.09;;;-2.48;40.43
68141;BME280;54941;52.220;104.306;2024-03-06T03:28:06;97192.13;;;-3.04;42.12
68141;BME280;54941;52.220;104.306;2024-03-06T03:30:34;97189.28;;;-2.29;40.56
68141;BME280;54941;52.220;104.306;2024-03-06T03:33:00;97191.34;;;-1.55;39.27
68141;BME280;54941;52.220;104.306;2024-03-06T03:35:26;97183.38;;;-0.91;37.86
68141;BME280;54941;52.220;104.306;2024-03-06T03:37:52;97191.59;;;-3.16;41.24
68141;BME280;54941;52.220;104.306;2024-03-06T03:40:19;97185.13;;;-1.38;39.49
68141;BME280;54941;52.220;104.306;2024-03-06T03:42:45;97181.97;;;-0.81;37.39
68141;BME280;54941;52.220;104.306;2024-03-06T03:45:11;97189.25;;;-0.95;37.54
68141;BME280;54941;52.220;104.306;2024-03-06T03:47:39;97183.53;;;-0.86;36.85
68141;BME280;54941;52.220;104.306;2024-03-06T03:50:06;97180.63;;;-1.87;40.14
68141;BME280;54941;52.220;104.306;2024-03-06T03:52:32;97178.75;;;-1.91;39.53
68141;BME280;54941;52.220;104.306;2024-03-06T03:54:59;97184.13;;;-2.70;41.93
68141;BME280;54941;52.220;104.306;2024-03-06T03:57:25;97171.44;;;-0.61;37.85
68141;BME280;54941;52.220;104.306;2024-03-06T03:59:51;97171.72;;;-0.53;36.00
68141;BME280;54941;52.220;104.306;2024-03-06T04:02:17;97170.16;;;-0.22;35.75
68141;BME280;54941;52.220;104.306;2024-03-06T04:04:45;97172.38;;;-1.32;37.88
68141;BME280;54941;52.220;104.306;2024-03-06T04:07:11;97171.31;;;-0.40;36.66
68141;BME280;54941;52.220;104.306;2024-03-06T04:09:38;97162.81;;;-0.09;35.08
68141;BME280;54941;52.220;104.306;2024-03-06T04:12:04;97154.88;;;1.34;32.84
68141;BME280;54941;52.220;104.306;2024-03-06T04:14:30;97170.00;;;-1.50;37.98
68141;BME280;54941;52.220;104.306;2024-03-06T04:16:57;97160.84;;;-0.43;36.63
68141;BME280;54941;52.220;104.306;2024-03-06T04:19:24;97158.72;;;-0.01;34.89
68141;BME280;54941;52.220;104.306;2024-03-06T04:21:52;97150.34;;;0.35;33.93
68141;BME280;54941;52.220;104.306;2024-03-06T04:24:18;97148.50;;;0.61;34.31
68141;BME280;54941;52.220;104.306;2024-03-06T04:26:45;97151.22;;;-0.45;35.36
68141;BME280;54941;52.220;104.306;2024-03-06T04:29:11;97153.59;;;-1.26;37.58
68141;BME280;54941;52.220;104.306;2024-03-06T04:31:37;97161.13;;;-1.55;37.99
68141;BME280;54941;52.220;104.306;2024-03-06T04:34:03;97142.72;;;-0.41;36.79
68141;BME280;54941;52.220;104.306;2024-03-06T04:36:30;97146.81;;;-1.45;38.36
68141;BME280;54941;52.220;104.306;2024-03-06T04:38:57;97139.66;;;-1.04;37.63
68141;BME280;54941;52.220;104.306;2024-03-06T04:41:24;97133.84;;;-1.69;38.28
68141;BME280;54941;52.220;104.306;2024-03-06T04:43:50;97137.78;;;-2.01;41.03
68141;BME280;54941;52.220;104.306;2024-03-06T04:46:16;97138.13;;;-1.69;38.95
68141;BME280;54941;52.220;104.306;2024-03-06T04:48:43;97144.50;;;-1.84;38.29
68141;BME280;54941;52.220;104.306;2024-03-06T04:51:09;97135.59;;;-1.90;38.85
68141;BME280;54941;52.220;104.306;2024-03-06T04:53:35;97129.53;;;-2.13;41.29
68141;BME280;54941;52.220;104.306;2024-03-06T04:56:03;97131.13;;;-1.26;37.33
68141;BME280;54941;52.220;104.306;2024-03-06T04:58:29;97131.72;;;-1.79;38.35
68141;BME280;54941;52.220;104.306;2024-03-06T05:00:56;97127.47;;;-1.99;39.64
68141;BME280;54941;52.220;104.306;2024-03-06T05:03:22;97123.47;;;-2.14;38.83
68141;BME280;54941;52.220;104.306;2024-03-06T05:05:48;97126.47;;;-2.03;40.25
68141;BME280;54941;52.220;104.306;2024-03-06T05:08:15;97114.44;;;-1.08;36.66
68141;BME280;54941;52.220;104.306;2024-03-06T05:10:41;97121.91;;;-1.18;37.21
68141;BME280;54941;52.220;104.306;2024-03-06T05:13:09;97118.63;;;-1.84;39.19
68141;BME280;54941;52.220;104.306;2024-03-06T05:15:35;97116.41;;;-0.77;37.60
68141;BME280;54941;52.220;104.306;2024-03-06T05:18:01;97115.88;;;-1.17;38.15
68141;BME280;54941;52.220;104.306;2024-03-06T05:20:28;97112.09;;;-0.77;35.94
68141;BME280;54941;52.220;104.306;2024-03-06T05:22:54;97104.75;;;-1.14;36.65
68141;BME280;54941;52.220;104.306;2024-03-06T05:25:21;97104.38;;;-1.25;37.02
68141;BME280;54941;52.220;104.306;2024-03-06T05:27:47;97108.22;;;-1.61;38.07
68141;BME280;54941;52.220;104.306;2024-03-06T05:30:15;97102.88;;;-1.18;36.42
68141;BME280;54941;52.220;104.306;2024-03-06T05:32:41;97090.84;;;-1.16;37.22
68141;BME280;54941;52.220;104.306;2024-03-06T05:35:07;97094.50;;;-1.11;36.73
68141;BME280;54941;52.220;104.306;2024-03-06T05:37:34;97085.66;;;-0.92;35.80
68141;BME280;54941;52.220;104.306;2024-03-06T05:40:00;97095.06;;;-1.43;37.19
68141;BME280;54941;52.220;104.306;2024-03-06T05:42:26;97084.91;;;-1.13;36.06
68141;BME280;54941;52.220;104.306;2024-03-06T05:44:53;97087.66;;;-1.33;36.72
68141;BME280;54941;52.220;104.306;2024-03-06T05:47:20;97076.03;;;-0.95;35.35
68141;BME280;54941;52.220;104.306;2024-03-06T05:49:47;97088.00;;;-1.48;36.20
68141;BME280;54941;52.220;104.306;2024-03-06T05:52:14;97084.25;;;-1.32;36.08
68141;BME280;54941;52.220;104.306;2024-03-06T05:54:40;97081.63;;;-1.08;35.73
68141;BME280;54941;52.220;104.306;2024-03-06T05:57:07;97079.94;;;-1.31;36.62
68141;BME280;54941;52.220;104.306;2024-03-06T05:59:33;97078.34;;;-1.52;37.00
68141;BME280;54941;52.220;104.306;2024-03-06T06:01:59;97064.66;;;-1.24;36.92
68141;BME280;54941;52.220;104.306;2024-03-06T06:04:27;97062.69;;;-1.31;37.64
68141;BME280;54941;52.220;104.306;2024-03-06T06:06:53;97050.03;;;-0.71;35.02
68141;BME280;54941;52.220;104.306;2024-03-06T06:09:19;97049.75;;;-0.53;35.38
68141;BME280;54941;52.220;104.306;2024-03-06T06:11:46;97055.59;;;-0.59;34.90
68141;BME280;54941;52.220;104.306;2024-03-06T06:14:12;97049.50;;;-0.61;35.46
68141;BME280;54941;52.220;104.306;2024-03-06T06:16:39;97040.91;;;-0.85;35.81
68141;BME280;54941;52.220;104.306;2024-03-06T06:19:06;97037.25;;;-0.65;35.38
68141;BME280;54941;52.220;104.306;2024-03-06T06:21:34;97028.88;;;-0.29;34.38
68141;BME280;54941;52.220;104.306;2024-03-06T06:24:00;97026.72;;;-0.42;35.47
68141;BME280;54941;52.220;104.306;2024-03-06T06:26:27;97025.34;;;-0.31;34.99
68141;BME280;54941;52.220;104.306;2024-03-06T06:28:53;97029.59;;;-0.35;34.81
68141;BME280;54941;52.220;104.306;2024-03-06T06:31:19;97024.75;;;-0.49;36.88
68141;BME280;54941;52.220;104.306;2024-03-06T06:33:45;97026.72;;;-0.42;36.06
68141;BME280;54941;52.220;104.306;2024-03-06T06:36:12;97017.69;;;-0.55;35.31
68141;BME280;54941;52.220;104.306;2024-03-06T06:38:39;97012.66;;;-0.49;35.06
68141;BME280;54941;52.220;104.306;2024-03-06T06:41:06;97014.22;;;-0.55;34.73
68141;BME280;54941;52.220;104.306;2024-03-06T06:43:32;97016.50;;;-0.92;35.95
68141;BME280;54941;52.220;104.306;2024-03-06T06:45:58;97006.78;;;-0.70;35.92
68141;BME280;54941;52.220;104.306;2024-03-06T06:48:24;97007.22;;;-1.10;36.44
68141;BME280;54941;52.220;104.306;2024-03-06T06:50:51;97009.16;;;-0.78;36.37
68141;BME280;54941;52.220;104.306;2024-03-06T06:53:17;96998.22;;;-0.95;36.84
68141;BME280;54941;52.220;104.306;2024-03-06T06:55:45;97002.44;;;-0.71;36.43
68141;BME280;54941;52.220;104.306;2024-03-06T06:58:11;96995.88;;;-0.33;34.14
68141;BME280;54941;52.220;104.306;2024-03-06T07:00:37;96997.44;;;-0.38;34.56
68141;BME280;54941;52.220;104.306;2024-03-06T07:03:04;96995.78;;;-0.63;35.21
68141;BME280;54941;52.220;104.306;2024-03-06T07:05:30;96998.47;;;-0.87;35.46
68141;BME280;54941;52.220;104.306;2024-03-06T07:07:56;96992.28;;;-0.65;35.08
68141;BME280;54941;52.220;104.306;2024-03-06T07:10:23;97000.31;;;-0.57;33.80
68141;BME280;54941;52.220;104.306;2024-03-06T07:12:50;96993.03;;;-0.41;34.20
68141;BME280;54941;52.220;104.306;2024-03-06T07:15:17;96993.38;;;-0.30;34.12
68141;BME280;54941;52.220;104.306;2024-03-06T07:17:43;96999.16;;;-0.39;33.44
68141;BME280;54941;52.220;104.306;2024-03-06T07:20:10;96999.69;;;-0.49;32.71
68141;BME280;54941;52.220;104.306;2024-03-06T07:22:36;96998.38;;;-0.63;32.09
68141;BME280;54941;52.220;104.306;2024-03-06T07:25:03;97002.50;;;-0.70;31.93
68141;BME280;54941;52.220;104.306;2024-03-06T07:27:30;97001.56;;;-0.72;32.48
68141;BME280;54941;52.220;104.306;2024-03-06T07:29:58;97004.31;;;-0.67;32.63
68141;BME280;54941;52.220;104.306;2024-03-06T07:32:24;97001.03;;;-0.62;31.69
68141;BME280;54941;52.220;104.306;2024-03-06T07:34:51;96995.97;;;-0.30;31.10
68141;BME280;54941;52.220;104.306;2024-03-06T07:37:17;96996.50;;;-0.69;31.27
68141;BME280;54941;52.220;104.306;2024-03-06T07:39:43;96999.41;;;-0.58;32.05
68141;BME280;54941;52.220;104.306;2024-03-06T07:42:10;96993.50;;;-0.81;31.32
68141;BME280;54941;52.220;104.306;2024-03-06T07:44:38;96986.38;;;-0.60;30.13
68141;BME280;54941;52.220;104.306;2024-03-06T07:47:06;96986.38;;;-0.33;29.44
68141;BME280;54941;52.220;104.306;2024-03-06T07:49:32;96987.84;;;-0.41;29.67
68141;BME280;54941;52.220;104.306;2024-03-06T07:51:58;96984.06;;;-0.50;29.55
68141;BME280;54941;52.220;104.306;2024-03-06T07:54:25;96983.44;;;-0.43;29.88
68141;BME280;54941;52.220;104.306;2024-03-06T07:56:51;96972.34;;;-0.66;30.55
68141;BME280;54941;52.220;104.306;2024-03-06T07:59:17;96978.25;;;-0.70;31.14
68141;BME280;54941;52.220;104.306;2024-03-06T08:01:44;96975.00;;;-0.92;31.42
68141;BME280;54941;52.220;104.306;2024-03-06T08:04:12;96975.41;;;-0.51;31.56
68141;BME280;54941;52.220;104.306;2024-03-06T08:06:38;96967.66;;;-0.49;31.16
68141;BME280;54941;52.220;104.306;2024-03-06T08:09:05;96969.75;;;-0.38;31.22
68141;BME280;54941;52.220;104.306;2024-03-06T08:11:31;96968.50;;;-0.50;32.05
68141;BME280;54941;52.220;104.306;2024-03-06T08:13:58;96969.44;;;-0.48;32.09
68141;BME280;54941;52.220;104.306;2024-03-06T08:16:24;96971.00;;;-0.53;32.22
68141;BME280;54941;52.220;104.306;2024-03-06T08:18:50;96969.84;;;-0.63;32.65
68141;BME280;54941;52.220;104.306;2024-03-06T08:21:18;96959.16;;;-0.45;32.80
68141;BME280;54941;52.220;104.306;2024-03-06T08:23:44;96963.19;;;-0.55;32.65
68141;BME280;54941;52.220;104.306;2024-03-06T08:26:11;96954.81;;;-0.73;33.04
68141;BME280;54941;52.220;104.306;2024-03-06T08:28:37;96949.28;;;-0.84;34.30
68141;BME280;54941;52.220;104.306;2024-03-06T08:31:03;96949.78;;;-0.69;34.77
68141;BME280;54941;52.220;104.306;2024-03-06T08:33:30;96943.84;;;-0.65;35.61
68141;BME280;54941;52.220;104.306;2024-03-06T08:35:56;96947.69;;;-0.52;34.38
68141;BME280;54941;52.220;104.306;2024-03-06T08:38:24;96948.81;;;-0.44;34.22
68141;BME280;54941;52.220;104.306;2024-03-06T08:40:50;96944.88;;;-0.60;34.34
68141;BME280;54941;52.220;104.306;2024-03-06T08:43:17;96933.09;;;-0.48;33.57
68141;BME280;54941;52.220;104.306;2024-03-06T08:45:43;96942.38;;;-0.83;34.18
68141;BME280;54941;52.220;104.306;2024-03-06T08:48:09;96933.19;;;-0.74;34.43
68141;BME280;54941;52.220;104.306;2024-03-06T08:50:36;96933.09;;;-0.77;34.40
68141;BME280;54941;52.220;104.306;2024-03-06T08:53:02;96922.25;;;-0.64;33.93
68141;BME280;54941;52.220;104.306;2024-03-06T08:55:30;96926.78;;;-1.12;34.58
68141;BME280;54941;52.220;104.306;2024-03-06T08:57:56;96921.59;;;-0.85;34.91
68141;BME280;54941;52.220;104.306;2024-03-06T09:00:23;96922.19;;;-0.94;34.73
68141;BME280;54941;52.220;104.306;2024-03-06T09:02:49;96923.91;;;-0.94;34.64
68141;BME280;54941;52.220;104.306;2024-03-06T09:05:15;96919.03;;;-0.83;34.78
68141;BME280;54941;52.220;104.306;2024-03-06T09:07:41;96919.97;;;-0.81;35.03
68141;BME280;54941;52.220;104.306;2024-03-06T09:10:08;96928.31;;;-0.92;34.97
68141;BME280;54941;52.220;104.306;2024-03-06T09:12:36;96930.56;;;-1.02;35.31
68141;BME280;54941;52.220;104.306;2024-03-06T09:15:03;96925.28;;;-0.78;34.27
68141;BME280;54941;52.220;104.306;2024-03-06T09:17:33;96927.84;;;-1.05;35.54
68141;BME280;54941;52.220;104.306;2024-03-06T09:19:59;96925.59;;;-0.95;35.56
68141;BME280;54941;52.220;104.306;2024-03-06T09:22:26;96924.78;;;-1.21;36.64
68141;BME280;54941;52.220;104.306;2024-03-06T09:24:52;96921.91;;;-1.03;36.85
68141;BME280;54941;52.220;104.306;2024-03-06T09:27:18;96909.13;;;-1.24;37.23
68141;BME280;54941;52.220;104.306;2024-03-06T09:29:46;96919.94;;;-1.37;37.68
68141;BME280;54941;52.220;104.306;2024-03-06T09:32:12;96916.56;;;-1.34;37.99
68141;BME280;54941;52.220;104.306;2024-03-06T09:34:38;96913.00;;;-1.11;37.00
68141;BME280;54941;52.220;104.306;2024-03-06T09:37:05;96907.25;;;-1.02;36.01
68141;BME280;54941;52.220;104.306;2024-03-06T09:39:31;96913.41;;;-1.26;36.73
68141;BME280;54941;52.220;104.306;2024-03-06T09:41:59;96916.69;;;-1.30;37.04
68141;BME280;54941;52.220;104.306;2024-03-06T09:44:26;96923.28;;;-1.39;36.82
68141;BME280;54941;52.220;104.306;2024-03-06T09:46:54;96914.53;;;-1.16;35.98
68141;BME280;54941;52.220;104.306;2024-03-06T09:49:23;96919.53;;;-1.49;37.22
68141;BME280;54941;52.220;104.306;2024-03-06T09:51:50;96918.75;;;-1.47;37.14
68141;BME280;54941;52.220;104.306;2024-03-06T09:54:17;96909.72;;;-1.58;37.64
68141;BME280;54941;52.220;104.306;2024-03-06T09:56:44;96921.63;;;-1.63;37.36
68141;BME280;54941;52.220;104.306;2024-03-06T09:59:11;96924.03;;;-1.69;37.06
68141;BME280;54941;52.220;104.306;2024-03-06T10:01:39;96922.63;;;-1.85;37.11
68141;BME280;54941;52.220;104.306;2024-03-06T10:04:19;96929.22;;;-1.93;36.90
68141;BME280;54941;52.220;104.306;2024-03-06T10:06:46;96925.38;;;-1.80;36.83
68141;BME280;54941;52.220;104.306;2024-03-06T10:09:14;96921.22;;;-1.99;37.07
68141;BME280;54941;52.220;104.306;2024-03-06T10:11:42;96930.50;;;-2.06;38.03
68141;BME280;54941;52.220;104.306;2024-03-06T10:14:08;96928.22;;;-2.20;41.56
68141;BME280;54941;52.220;104.306;2024-03-06T10:16:35;96945.69;;;-2.39;42.16
68141;BME280;54941;52.220;104.306;2024-03-06T10:19:15;96937.69;;;-2.67;45.18
68141;BME280;54941;52.220;104.306;2024-03-06T10:21:42;96944.75;;;-2.85;45.96
68141;BME280;54941;52.220;104.306;2024-03-06T10:24:09;96945.25;;;-2.94;43.08
68141;BME280;54941;52.220;104.306;2024-03-06T10:26:35;96954.78;;;-3.14;48.08
68141;BME280;54941;52.220;104.306;2024-03-06T10:29:01;96943.72;;;-3.32;48.43
68141;BME280;54941;52.220;104.306;2024-03-06T10:31:28;96947.31;;;-3.29;50.26
68141;BME280;54941;52.220;104.306;2024-03-06T10:33:54;96947.25;;;-3.51;50.21
68141;BME280;54941;52.220;104.306;2024-03-06T10:36:20;96951.97;;;-3.62;48.80
68141;BME280;54941;52.220;104.306;2024-03-06T10:38:49;96948.91;;;-3.72;49.86
68141;BME280;54941;52.220;104.306;2024-03-06T10:41:20;96950.09;;;-3.85;49.54
68141;BME280;54941;52.220;104.306;2024-03-06T10:43:49;96957.66;;;-3.90;49.31
68141;BME280;54941;52.220;104.306;2024-03-06T10:46:19;96961.53;;;-3.99;50.11
68141;BME280;54941;52.220;104.306;2024-03-06T10:48:47;96958.13;;;-4.18;50.81
68141;BME280;54941;52.220;104.306;2024-03-06T10:51:15;96963.84;;;-4.25;51.13
68141;BME280;54941;52.220;104.306;2024-03-06T10:53:43;96963.31;;;-4.37;50.11
68141;BME280;54941;52.220;104.306;2024-03-06T10:56:12;96967.66;;;-4.36;49.29
68141;BME280;54941;52.220;104.306;2024-03-06T10:58:39;96973.66;;;-4.55;51.47
68141;BME280;54941;52.220;104.306;2024-03-06T11:01:08;96976.91;;;-4.77;52.09
68141;BME280;54941;52.220;104.306;2024-03-06T11:03:35;96987.09;;;-4.80;51.51
68141;BME280;54941;52.220;104.306;2024-03-06T11:06:01;96988.84;;;-4.79;50.01
68141;BME280;54941;52.220;104.306;2024-03-06T11:08:28;96984.09;;;-4.89;50.71
68141;BME280;54941;52.220;104.306;2024-03-06T11:11:22;96985.03;;;-4.87;50.13
68141;BME280;54941;52.220;104.306;2024-03-06T11:13:48;96982.63;;;-5.02;51.48
68141;BME280;54941;52.220;104.306;2024-03-06T11:16:15;96993.00;;;-5.18;51.76
68141;BME280;54941;52.220;104.306;2024-03-06T11:18:42;96992.63;;;-5.25;52.72
68141;BME280;54941;52.220;104.306;2024-03-06T11:21:29;96989.94;;;-5.63;54.64
68141;BME280;54941;52.220;104.306;2024-03-06T11:24:18;96987.63;;;-5.74;55.82
68141;BME280;54941;52.220;104.306;2024-03-06T11:27:04;96998.09;;;-5.88;56.29
68141;BME280;54941;52.220;104.306;2024-03-06T11:30:06;97004.25;;;-6.02;56.20
68141;BME280;54941;52.220;104.306;2024-03-06T11:32:33;97006.34;;;-6.11;56.25
68141;BME280;54941;52.220;104.306;2024-03-06T11:34:59;97006.09;;;-6.15;56.60
68141;BME280;54941;52.220;104.306;2024-03-06T11:37:25;97008.50;;;-6.19;56.23
68141;BME280;54941;52.220;104.306;2024-03-06T11:39:51;97008.72;;;-6.14;55.07
68141;BME280;54941;52.220;104.306;2024-03-06T11:42:34;97012.53;;;-6.07;55.21
68141;BME280;54941;52.220;104.306;2024-03-06T11:45:13;97013.81;;;-6.15;56.49
68141;BME280;54941;52.220;104.306;2024-03-06T11:47:57;97003.59;;;-6.30;56.09
68141;BME280;54941;52.220;104.306;2024-03-06T11:50:23;97007.44;;;-6.38;57.02
68141;BME280;54941;52.220;104.306;2024-03-06T11:52:51;97012.56;;;-6.55;57.57
68141;BME280;54941;52.220;104.306;2024-03-06T11:55:17;97009.06;;;-6.71;57.87
68141;BME280;54941;52.220;104.306;2024-03-06T11:57:48;97002.56;;;-6.81;58.39
68141;BME280;54941;52.220;104.306;2024-03-06T12:00:15;97007.72;;;-6.81;57.93
68141;BME280;54941;52.220;104.306;2024-03-06T12:02:42;97015.19;;;-7.00;58.29
68141;BME280;54941;52.220;104.306;2024-03-06T12:05:09;97013.66;;;-6.97;57.37
68141;BME280;54941;52.220;104.306;2024-03-06T12:07:45;97018.88;;;-6.95;56.09
68141;BME280;54941;52.220;104.306;2024-03-06T12:10:12;97015.59;;;-6.78;55.18
68141;BME280;54941;52.220;104.306;2024-03-06T12:12:40;97008.63;;;-6.64;54.18
68141;BME280;54941;52.220;104.306;2024-03-06T12:15:09;97008.38;;;-6.69;55.19
68141;BME280;54941;52.220;104.306;2024-03-06T12:17:41;97016.50;;;-6.92;56.67
68141;BME280;54941;52.220;104.306;2024-03-06T12:20:10;97014.91;;;-6.90;55.80
68141;BME280;54941;52.220;104.306;2024-03-06T12:22:43;97012.78;;;-6.97;56.67
68141;BME280;54941;52.220;104.306;2024-03-06T12:25:10;97019.47;;;-6.85;57.06
68141;BME280;54941;52.220;104.306;2024-03-06T12:27:36;97021.00;;;-6.88;57.54
68141;BME280;54941;52.220;104.306;2024-03-06T12:30:10;97019.25;;;-6.89;58.40
68141;BME280;54941;52.220;104.306;2024-03-06T12:32:37;97021.69;;;-7.22;59.48
68141;BME280;54941;52.220;104.306;2024-03-06T12:35:04;97022.06;;;-7.45;60.56
68141;BME280;54941;52.220;104.306;2024-03-06T12:37:32;97024.88;;;-7.70;60.73
68141;BME280;54941;52.220;104.306;2024-03-06T12:39:58;97024.16;;;-7.82;61.19